createdAt,value
2023-10-26T00:01:39.081Z,76.53
2023-10-26T00:03:22.556Z,76.43
2023-10-26T00:05:05.937Z,76.01
2023-10-26T00:06:49.393Z,76.4
2023-10-26T00:08:32.844Z,76.58
2023-10-26T00:10:53.375Z,76.24
2023-10-26T00:11:59.802Z,75.58
2023-10-26T00:14:20.277Z,75.03
2023-10-26T00:16:03.729Z,74.92
2023-10-26T00:17:47.272Z,75.08
2023-10-26T00:20:36.970Z,75.63
2023-10-26T00:22:49.834Z,75.47
2023-10-26T00:23:56.173Z,75.7
2023-10-26T00:25:02.617Z,75.79
2023-10-26T00:26:09.001Z,76.26
2023-10-26T00:27:15.495Z,76.12
2023-10-26T00:28:21.811Z,75.72
2023-10-26T00:29:28.198Z,75.66
2023-10-26T00:30:34.599Z,75.64
2023-10-26T00:32:55.168Z,75.94
2023-10-26T00:34:01.501Z,75.73
2023-10-26T00:35:44.897Z,75.21
2023-10-26T00:37:28.397Z,75.29
2023-10-26T00:39:11.872Z,75.49
2023-10-26T00:41:32.472Z,76.07
2023-10-26T00:42:38.839Z,75.64
2023-10-26T00:44:59.333Z,75.88
2023-10-26T00:46:05.698Z,75.43
2023-10-26T00:47:49.223Z,76.08
2023-10-26T00:50:01.894Z,75.74
2023-10-26T00:51:08.360Z,76.91
2023-10-26T00:52:14.680Z,76.91
2023-10-26T00:53:21.259Z,76.83
2023-10-26T00:54:27.489Z,76.24
2023-10-26T00:55:33.911Z,76.63
2023-10-26T00:56:40.322Z,76.31
2023-10-26T00:57:46.690Z,76.41
2023-10-26T00:59:59.592Z,75.96
2023-10-26T01:01:05.925Z,76.03
2023-10-26T01:02:49.372Z,75.67
2023-10-26T01:04:32.753Z,76.37
2023-10-26T01:06:16.249Z,75.72
2023-10-26T01:08:36.732Z,75.51
2023-10-26T01:09:43.191Z,75.61
2023-10-26T01:11:26.654Z,75.39
2023-10-26T01:13:10.101Z,75.67
2023-10-26T01:14:53.675Z,76.63
2023-10-26T01:16:37.025Z,76.19
2023-10-26T01:18:20.506Z,77.17
2023-10-26T01:19:26.814Z,76.98
2023-10-26T01:21:39.587Z,76.32
2023-10-26T01:22:46.028Z,75.86
2023-10-26T01:23:52.485Z,76.3
2023-10-26T01:25:35.816Z,76.1
2023-10-26T01:27:56.329Z,77.72
2023-10-26T01:30:16.879Z,77.26
2023-10-26T01:32:37.400Z,76.38
2023-10-26T01:34:57.865Z,76.27
2023-10-26T01:37:55.480Z,78.75
2023-10-26T01:39:38.932Z,77.42
2023-10-26T01:41:59.523Z,76.81
2023-10-26T01:44:20.006Z,77.24
2023-10-26T01:46:03.384Z,76.94
2023-10-26T01:47:46.875Z,77.32
2023-10-26T01:49:30.345Z,77.09
2023-10-26T01:51:13.811Z,77.29
2023-10-26T01:52:57.246Z,78.83
2023-10-26T01:54:40.703Z,76.97
2023-10-26T01:56:24.169Z,77.36
2023-10-26T01:58:07.649Z,77.37
2023-10-26T01:59:51.098Z,76.93
2023-10-26T02:01:34.396Z,77.5
2023-10-26T02:02:40.952Z,77.85
2023-10-26T02:03:47.315Z,76.86
2023-10-26T02:04:53.694Z,76.53
2023-10-26T02:06:00.237Z,77.09
2023-10-26T02:07:06.523Z,76.7
2023-10-26T02:08:12.902Z,76.62
2023-10-26T02:09:19.359Z,76.52
2023-10-26T02:10:25.712Z,76.31
2023-10-26T02:11:32.119Z,76.2
2023-10-26T02:12:38.531Z,76.72
2023-10-26T02:13:44.985Z,76.31
2023-10-26T02:14:51.364Z,76.66
2023-10-26T02:15:57.733Z,76.81
2023-10-26T02:17:04.059Z,77.6
2023-10-26T02:18:10.668Z,77.18
2023-10-26T02:19:18.326Z,76.75
2023-10-26T02:20:23.393Z,76.35
2023-10-26T02:21:29.794Z,75.97
2023-10-26T02:22:36.192Z,76.28
2023-10-26T02:23:42.583Z,76.12
2023-10-26T02:24:48.975Z,76.7
2023-10-26T02:25:55.407Z,76.37
2023-10-26T02:27:01.825Z,75.98
2023-10-26T02:28:08.185Z,76.02
2023-10-26T02:29:14.599Z,76.51
2023-10-26T02:31:27.428Z,77.4
2023-10-26T02:32:33.833Z,76.93
2023-10-26T02:33:40.232Z,76.91
2023-10-26T02:34:47.096Z,76.63
2023-10-26T02:35:53.024Z,76.53
2023-10-26T02:36:59.421Z,76.62
2023-10-26T02:38:05.840Z,76.51
2023-10-26T02:39:12.251Z,76.2
2023-10-26T02:40:18.547Z,76.83
2023-10-26T02:41:25.052Z,76.06
2023-10-26T02:42:31.494Z,76.21
2023-10-26T02:43:37.858Z,76.9
2023-10-26T02:44:44.816Z,76.73
2023-10-26T02:46:57.068Z,78
2023-10-26T02:48:03.610Z,76.84
2023-10-26T02:49:09.908Z,76.37
2023-10-26T02:50:16.329Z,76.34
2023-10-26T02:51:22.749Z,76.2
2023-10-26T02:52:29.115Z,76.21
2023-10-26T02:53:35.523Z,76.96
2023-10-26T02:54:41.944Z,76.61
2023-10-26T02:55:48.314Z,76.67
2023-10-26T02:56:54.812Z,76.78
2023-10-26T02:58:01.143Z,76.83
2023-10-26T02:59:07.498Z,76.48
2023-10-26T03:00:14.015Z,76.2
2023-10-26T03:01:20.314Z,76.82
2023-10-26T03:02:26.813Z,76.48
2023-10-26T03:03:33.259Z,76.51
2023-10-26T03:04:39.475Z,76.68
2023-10-26T03:05:45.952Z,76.53
2023-10-26T03:06:52.375Z,76.22
2023-10-26T03:07:58.752Z,75.92
2023-10-26T03:09:05.166Z,75.97
2023-10-26T03:10:11.585Z,76.24
2023-10-26T03:11:17.997Z,76.05
2023-10-26T03:12:24.442Z,75.97
2023-10-26T03:13:30.817Z,76.21
2023-10-26T03:14:37.203Z,76.41
2023-10-26T03:15:43.740Z,76.45
2023-10-26T03:16:50.073Z,76.56
2023-10-26T03:17:56.535Z,76.61
2023-10-26T03:19:02.735Z,76.14
2023-10-26T03:20:09.210Z,76.28
2023-10-26T03:21:15.689Z,76.1
2023-10-26T03:22:22.099Z,75.87
2023-10-26T03:23:28.433Z,75.99
2023-10-26T03:24:34.806Z,76.01
2023-10-26T03:25:41.351Z,75.94
2023-10-26T03:26:47.645Z,76.31
2023-10-26T03:27:53.974Z,75.86
2023-10-26T03:29:00.461Z,75.94
2023-10-26T03:30:06.923Z,76.06
2023-10-26T03:31:13.267Z,76.02
2023-10-26T03:32:19.588Z,75.8
2023-10-26T03:33:26.166Z,75.99
2023-10-26T03:34:32.484Z,75.64
2023-10-26T03:35:38.893Z,75.69
2023-10-26T03:36:45.335Z,75.8
2023-10-26T03:37:51.702Z,75.81
2023-10-26T03:38:58.174Z,75.63
2023-10-26T03:40:04.532Z,75.67
2023-10-26T03:41:10.911Z,76.17
2023-10-26T03:42:54.319Z,75.9
2023-10-26T03:44:00.671Z,75.79
2023-10-26T03:45:07.208Z,75.77
2023-10-26T03:46:13.541Z,75.62
2023-10-26T03:47:20.154Z,75.49
2023-10-26T03:48:26.265Z,75.59
2023-10-26T03:49:32.769Z,75.77
2023-10-26T03:50:39.150Z,75.77
2023-10-26T03:51:45.561Z,75.73
2023-10-26T03:52:51.933Z,75.56
2023-10-26T03:53:58.400Z,75.57
2023-10-26T03:55:04.723Z,75.8
2023-10-26T03:56:11.160Z,75.63
2023-10-26T03:57:17.673Z,75.44
2023-10-26T03:58:24.033Z,75.53
2023-10-26T03:59:30.372Z,75.46
2023-10-26T04:00:36.757Z,75.45
2023-10-26T04:01:43.407Z,75.81
2023-10-26T04:02:49.626Z,75.63
2023-10-26T04:03:55.957Z,75.49
2023-10-26T04:05:02.354Z,75.84
2023-10-26T04:06:08.788Z,75.65
2023-10-26T04:09:28.075Z,75.53
2023-10-26T04:10:37.200Z,75.63
2023-10-26T04:12:47.258Z,75.55
2023-10-26T04:14:30.597Z,75.64
2023-10-26T04:16:14.106Z,75.73
2023-10-26T04:17:57.651Z,75.82
2023-10-26T04:19:40.917Z,75.56
2023-10-26T04:21:24.518Z,75.52
2023-10-26T04:23:07.931Z,75.63
2023-10-26T04:24:51.395Z,75.49
2023-10-26T04:26:35.027Z,75.69
2023-10-26T04:28:18.319Z,76
2023-10-26T04:30:01.755Z,76.33
2023-10-26T04:31:08.101Z,75.96
2023-10-26T04:32:14.524Z,75.91
2023-10-26T04:33:21.025Z,75.64
2023-10-26T04:34:28.721Z,75.64
2023-10-26T04:35:33.713Z,75.67
2023-10-26T04:36:40.130Z,75.72
2023-10-26T04:37:46.542Z,75.79
2023-10-26T04:38:52.928Z,76.3
2023-10-26T04:40:00.641Z,76.07
2023-10-26T04:41:05.764Z,76.03
2023-10-26T04:42:12.201Z,76.14
2023-10-26T04:43:18.564Z,75.89
2023-10-26T04:44:24.995Z,75.7
2023-10-26T04:45:31.438Z,75.81
2023-10-26T04:47:44.210Z,75.8
2023-10-26T04:48:50.564Z,75.74
2023-10-26T04:49:57.045Z,75.66
2023-10-26T04:51:03.427Z,76.17
2023-10-26T04:52:09.715Z,76.22
2023-10-26T04:53:16.191Z,75.99
2023-10-26T04:54:22.652Z,75.99
2023-10-26T04:55:29.034Z,75.97
2023-10-26T04:56:35.343Z,75.75
2023-10-26T04:57:41.853Z,76.03
2023-10-26T04:58:48.243Z,76.16
2023-10-26T04:59:54.689Z,76.16
2023-10-26T05:01:01.032Z,76.58
2023-10-26T05:02:07.376Z,76.26
2023-10-26T05:03:14.042Z,75.97
2023-10-26T05:04:20.232Z,76.04
2023-10-26T05:05:26.656Z,75.88
2023-10-26T05:06:33.026Z,75.86
2023-10-26T05:07:39.466Z,76
2023-10-26T05:08:45.856Z,75.95
2023-10-26T05:09:52.260Z,75.68
2023-10-26T05:10:58.667Z,75.58
2023-10-26T05:12:05.169Z,75.96
2023-10-26T05:13:11.559Z,75.5
2023-10-26T05:14:17.933Z,75.53
2023-10-26T05:15:24.294Z,75.49
2023-10-26T05:16:30.728Z,75.52
2023-10-26T05:17:37.131Z,76.02
2023-10-26T05:18:43.591Z,76.32
2023-10-26T05:19:49.930Z,75.89
2023-10-26T05:20:56.313Z,75.79
2023-10-26T05:22:03.472Z,76.36
2023-10-26T05:23:09.140Z,76.23
2023-10-26T05:24:15.565Z,76.19
2023-10-26T05:25:21.936Z,76.45
2023-10-26T05:26:28.247Z,76.52
2023-10-26T05:27:36.615Z,76.38
2023-10-26T05:28:41.138Z,76.13
2023-10-26T05:29:47.543Z,76.37
2023-10-26T05:30:53.937Z,76.16
2023-10-26T05:32:00.377Z,75.95
2023-10-26T05:33:06.854Z,75.99
2023-10-26T05:35:19.566Z,76.12
2023-10-26T05:36:26.042Z,76.13
2023-10-26T05:37:32.350Z,76.05
2023-10-26T05:38:38.823Z,75.99
2023-10-26T05:39:45.198Z,75.95
2023-10-26T05:40:51.571Z,75.93
2023-10-26T05:41:58.012Z,76.46
2023-10-26T05:43:04.392Z,76.15
2023-10-26T05:44:10.812Z,75.95
2023-10-26T05:45:17.213Z,76.28
2023-10-26T05:46:23.634Z,76.06
2023-10-26T05:47:30.041Z,76.05
2023-10-26T05:48:36.446Z,75.94
2023-10-26T05:49:42.994Z,77
2023-10-26T05:50:49.442Z,76.98
2023-10-26T05:51:55.628Z,76.36
2023-10-26T05:53:02.056Z,76.33
2023-10-26T05:54:08.463Z,76.22
2023-10-26T05:55:14.834Z,76.16
2023-10-26T05:56:21.258Z,75.95
2023-10-26T05:57:27.675Z,75.88
2023-10-26T05:58:34.056Z,76.3
2023-10-26T05:59:40.449Z,76.26
2023-10-26T06:00:46.880Z,76.57
2023-10-26T06:01:53.343Z,76.37
2023-10-26T06:02:59.887Z,76.16
2023-10-26T06:04:06.120Z,75.89
2023-10-26T06:05:12.514Z,75.94
2023-10-26T06:06:18.959Z,75.98
2023-10-26T06:07:25.267Z,76.28
2023-10-26T06:08:31.688Z,76.2
2023-10-26T06:09:38.108Z,76.1
2023-10-26T06:10:44.556Z,76.01
2023-10-26T06:11:50.941Z,75.87
2023-10-26T06:12:57.290Z,75.67
2023-10-26T06:14:03.729Z,75.8
2023-10-26T06:15:10.152Z,75.76
2023-10-26T06:16:16.582Z,75.74
2023-10-26T06:18:29.360Z,75.54
2023-10-26T06:19:35.722Z,75.4
2023-10-26T06:20:42.136Z,75.55
2023-10-26T06:21:48.783Z,75.59
2023-10-26T06:24:01.370Z,75.7
2023-10-26T06:25:07.782Z,75.59
2023-10-26T06:26:14.173Z,75.53
2023-10-26T06:28:26.984Z,75.39
2023-10-26T06:29:33.388Z,75.52
2023-10-26T06:31:16.745Z,76.15
2023-10-26T06:33:37.332Z,76.32
2023-10-26T06:35:20.749Z,76.64
2023-10-26T06:36:27.232Z,76.31
2023-10-26T06:38:10.627Z,75.98
2023-10-26T06:39:54.093Z,75.76
2023-10-26T06:41:37.557Z,75.69
2023-10-26T06:43:21.035Z,75.59
2023-10-26T06:45:04.548Z,75.69
2023-10-26T06:47:54.301Z,75.81
2023-10-26T06:49:04.564Z,75.67
2023-10-26T06:50:07.109Z,75.63
2023-10-26T06:51:13.479Z,75.81
2023-10-26T06:52:19.906Z,75.88
2023-10-26T06:54:33.032Z,75.99
2023-10-26T06:55:39.101Z,75.76
2023-10-26T06:56:45.510Z,75.73
2023-10-26T06:57:51.895Z,75.83
2023-10-26T07:00:12.433Z,75.82
2023-10-26T07:02:09.798Z,75.91
2023-10-26T07:03:39.239Z,75.82
2023-10-26T07:05:22.624Z,75.6
2023-10-26T07:07:06.380Z,75.67
2023-10-26T07:08:54.069Z,75.92
2023-10-26T07:10:33.052Z,75.7
2023-10-26T07:12:16.517Z,75.62
2023-10-26T07:13:59.895Z,75.35
2023-10-26T07:16:20.513Z,75.47
2023-10-26T07:18:03.993Z,75.46
2023-10-26T07:19:10.309Z,75.56
2023-10-26T07:20:16.702Z,75.76
2023-10-26T08:12:17.766Z,75.33
2023-10-26T08:14:01.181Z,75.66
2023-10-26T08:16:06.038Z,75.42
2023-10-26T08:17:57.543Z,75.77
2023-10-26T08:19:03.798Z,75.87
2023-10-26T08:22:01.310Z,76.74
2023-10-26T08:23:07.612Z,77.3
2023-10-26T08:25:28.253Z,76.17
2023-10-26T08:27:48.722Z,76.5
2023-10-26T08:30:09.245Z,76.64
2023-10-26T08:32:29.924Z,76.75
2023-10-26T08:36:04.388Z,76.54
2023-10-26T08:37:13.580Z,76.45
2023-10-26T08:40:08.414Z,76.12
2023-10-26T08:43:05.973Z,75.92
2023-10-26T08:44:49.365Z,75.86
2023-10-26T08:46:32.896Z,75.68
2023-10-26T08:48:16.278Z,75.67
2023-10-26T08:50:36.828Z,75.38
2023-10-26T08:51:43.238Z,77.23
2023-10-26T08:53:26.677Z,76.49
2023-10-26T08:55:47.265Z,77.62
2023-10-26T08:56:53.618Z,76.66
2023-10-26T08:58:37.144Z,76.18
2023-10-26T09:00:20.460Z,76.23
2023-10-26T09:01:27.009Z,75.88
2023-10-26T09:02:33.444Z,75.98
2023-10-26T09:03:39.770Z,76.1
2023-10-26T09:04:46.230Z,77.3
2023-10-26T09:06:58.874Z,75.91
2023-10-26T09:08:05.317Z,75.88
2023-10-26T09:09:11.670Z,75.86
2023-10-26T09:10:18.099Z,76.2
2023-10-26T09:11:24.392Z,76.08
2023-10-26T09:12:30.926Z,76.82
2023-10-26T09:13:37.350Z,76.84
2023-10-26T09:14:43.880Z,76.68
2023-10-26T09:15:50.109Z,76.37
2023-10-26T09:16:56.634Z,75.94
2023-10-26T09:18:02.982Z,76.33
2023-10-26T09:19:09.338Z,75.95
2023-10-26T09:22:28.583Z,75.64
2023-10-26T09:24:11.921Z,75.47
2023-10-26T09:25:55.331Z,75.53
2023-10-26T09:27:38.713Z,75.86
2023-10-26T09:29:22.198Z,76.74
2023-10-26T09:31:42.775Z,76.14
2023-10-26T09:32:49.438Z,76.26
2023-10-26T09:34:32.687Z,75.7
2023-10-26T09:36:16.011Z,77.75
2023-10-26T09:38:36.549Z,77.32
2023-10-26T09:39:43.128Z,76.14
2023-10-26T09:42:03.470Z,76.39
2023-10-26T09:43:09.881Z,76.2
2023-10-26T09:45:59.718Z,77.42
2023-10-26T09:47:43.150Z,77.35
2023-10-26T09:50:03.579Z,76.29
2023-10-26T09:52:24.120Z,77.36
2023-10-26T09:54:44.806Z,77.17
2023-10-26T09:57:05.172Z,77.99
2023-10-26T10:00:02.746Z,78.01
2023-10-26T10:01:46.283Z,76.76
2023-10-26T10:04:06.837Z,76.57
2023-10-26T10:07:41.377Z,76.63
2023-10-26T10:09:24.842Z,76.95
2023-10-26T10:11:45.257Z,77.27
2023-10-26T10:12:51.691Z,77.31
2023-10-26T10:14:35.128Z,77.3
2023-10-26T10:16:18.711Z,78.15
2023-10-26T10:18:02.099Z,77.8
2023-10-26T10:20:22.585Z,78.03
2023-10-26T10:21:29.050Z,78.22
2023-10-26T10:23:12.470Z,77.92
2023-10-26T10:26:19.720Z,77.51
2023-10-26T10:28:15.088Z,76.87
2023-10-26T10:29:21.458Z,77.04
2023-10-26T10:30:27.903Z,77.16
2023-10-26T10:31:34.245Z,76.99
2023-10-26T10:34:53.513Z,78.46
2023-10-26T10:35:59.875Z,77.28
2023-10-26T10:37:06.273Z,77.77
2023-10-26T10:38:12.693Z,77.62
2023-10-26T10:39:56.085Z,77.55
2023-10-26T10:41:39.536Z,77.62
2023-10-26T10:44:00.052Z,77.8
2023-10-26T10:45:06.450Z,78.13
2023-10-26T10:46:49.937Z,77
2023-10-26T10:48:33.390Z,76.43
2023-10-26T10:50:16.823Z,76.76
2023-10-26T10:52:00.296Z,76.68
2023-10-26T10:53:43.729Z,76.59
2023-10-26T10:55:27.161Z,76.49
2023-10-26T10:56:33.544Z,76.31
2023-10-26T10:58:46.320Z,76.57
2023-10-26T11:00:29.756Z,76.17
2023-10-26T11:02:13.106Z,76.17
2023-10-26T11:04:35.419Z,76.34
2023-10-26T11:06:54.225Z,76.07
2023-10-26T11:08:37.564Z,76.54
2023-10-26T11:10:58.090Z,77.15
2023-10-26T11:13:18.636Z,76.77
2023-10-26T11:15:39.264Z,76.46
2023-10-26T11:18:36.755Z,77.28
2023-10-26T11:20:20.187Z,76.26
2023-10-26T11:22:40.728Z,75.94
2023-10-26T11:25:38.326Z,76.03
2023-10-26T11:27:21.778Z,75.91
2023-10-26T11:29:05.149Z,77
2023-10-26T11:30:48.872Z,76.25
2023-10-26T11:34:15.553Z,76.58
2023-10-26T11:35:59.207Z,76.52
2023-10-26T11:37:42.471Z,76.66
2023-10-26T11:39:25.937Z,76.67
2023-10-26T11:42:52.897Z,77.2
2023-10-26T11:45:13.404Z,77.08
2023-10-26T11:46:20.532Z,76.75
2023-10-26T11:48:03.199Z,76.43
2023-10-26T11:50:23.708Z,76.16
2023-10-26T11:53:21.252Z,75.79
2023-10-26T11:55:41.808Z,75.93
2023-10-26T11:57:25.242Z,76.34
2023-10-26T11:59:45.779Z,76.82
2023-10-26T12:02:43.423Z,76.92
2023-10-26T12:04:26.868Z,76.69
2023-10-26T12:06:47.426Z,76.19
2023-10-26T12:08:30.740Z,77.63
2023-10-26T12:10:14.112Z,77.54
2023-10-26T12:12:34.791Z,77.27
2023-10-26T12:13:41.158Z,76.45
2023-10-26T12:15:24.593Z,75.99
2023-10-26T12:17:08.036Z,76.33
2023-10-26T12:18:51.579Z,75.89
2023-10-26T12:20:34.998Z,75.45
2023-10-26T12:22:18.488Z,76.83
2023-10-26T12:24:01.913Z,76.24
2023-10-26T12:26:51.702Z,76.11
2023-10-26T12:30:11.110Z,76.42
2023-10-26T12:31:17.348Z,76.09
2023-10-26T12:32:23.720Z,76.5
2023-10-26T12:33:30.123Z,76.62
2023-10-26T12:36:49.408Z,77.05
2023-10-26T12:37:55.715Z,77.56
2023-10-26T12:39:02.160Z,77.22
2023-10-26T12:40:08.512Z,76.54
2023-10-26T12:42:29.004Z,77.64
2023-10-26T12:44:12.485Z,76.41
2023-10-26T12:46:32.973Z,75.55
2023-10-26T12:48:53.518Z,75.55
2023-10-26T12:51:13.996Z,75.7
2023-10-26T12:54:11.604Z,75.63
2023-10-26T12:55:55.033Z,75.9
2023-10-26T12:58:52.635Z,75.59
2023-10-26T13:01:13.306Z,75.82
2023-10-26T13:02:56.663Z,75.62
2023-10-26T13:05:17.074Z,75.66
2023-10-26T13:06:23.441Z,75.7
2023-10-26T13:08:06.963Z,75.94
2023-10-26T13:09:50.469Z,75.91
2023-10-26T13:11:33.877Z,75.62
2023-10-26T13:13:17.358Z,75.35
2023-10-26T13:15:37.864Z,75.4
2023-10-26T13:16:57.081Z,75.02
2023-10-26T13:18:27.655Z,75.04
2023-10-26T13:20:40.006Z,75.26
2023-10-26T13:22:23.421Z,75.27
2023-10-26T13:23:29.825Z,74.82
2023-10-26T13:24:36.264Z,74.75
2023-10-26T13:25:42.628Z,74.73
2023-10-26T13:27:55.516Z,74.57
2023-10-26T13:29:01.838Z,74.73
2023-10-26T13:31:14.737Z,74.69
2023-10-26T13:32:58.096Z,74.98
2023-10-26T13:34:41.502Z,75.14
2023-10-26T13:37:02.032Z,74.89
2023-10-26T13:38:08.430Z,74.52
2023-10-26T13:39:51.918Z,74.74
2023-10-26T13:42:12.438Z,74.81
2023-10-26T13:43:55.899Z,74.93
2023-10-26T13:45:39.417Z,74.75
2023-10-26T13:46:45.827Z,74.82
2023-10-26T13:48:29.198Z,74.86
2023-10-26T13:49:35.515Z,74.55
2023-10-26T13:51:48.343Z,74.72
2023-10-26T13:52:54.734Z,74.57
2023-10-26T13:54:01.050Z,74.7
2023-10-26T13:56:13.939Z,74.62
2023-10-26T13:57:20.733Z,74.51
2023-10-26T13:59:33.153Z,74.42
2023-10-26T14:00:39.618Z,74.35
2023-10-26T14:01:45.989Z,74.42
2023-10-26T14:03:29.332Z,74.39
2023-10-26T14:05:49.852Z,74.5
2023-10-26T14:07:33.325Z,74.56
2023-10-26T14:08:39.722Z,74.43
2023-10-26T14:10:23.230Z,74.42
2023-10-26T14:13:50.104Z,74.58
2023-10-26T14:15:33.654Z,74.54
2023-10-26T14:17:17.033Z,74.5
2023-10-26T14:20:43.963Z,74.48
2023-10-26T14:22:27.460Z,74.63
2023-10-26T14:24:10.793Z,74.57
2023-10-26T14:27:08.418Z,74.57
2023-10-26T14:28:51.931Z,74.65
2023-10-26T14:31:49.545Z,74.72
2023-10-26T14:33:33.007Z,74.53
2023-10-26T14:37:07.590Z,74.61
2023-10-26T14:38:13.872Z,74.8
2023-10-26T14:40:34.485Z,74.89
2023-10-26T14:43:32.089Z,75.02
2023-10-26T14:45:15.450Z,74.86
2023-10-26T14:47:36.008Z,74.9
2023-10-26T14:48:42.425Z,74.95
2023-10-26T14:50:25.853Z,74.88
2023-10-26T14:52:09.373Z,74.85
2023-10-26T14:54:29.848Z,74.75
2023-10-26T14:55:36.267Z,74.69
2023-10-26T14:57:19.721Z,74.76
2023-10-26T14:59:03.183Z,74.77
2023-10-26T15:01:53.016Z,74.92
2023-10-26T15:02:59.429Z,74.59
2023-10-26T15:04:05.881Z,74.64
2023-10-26T15:05:12.183Z,74.69
2023-10-26T15:06:18.615Z,74.85
2023-10-26T15:07:24.985Z,74.73
2023-10-26T15:08:31.386Z,74.87
2023-10-26T15:10:44.184Z,74.78
2023-10-26T15:11:57.209Z,74.8
2023-10-26T15:13:33.976Z,74.73
2023-10-26T15:15:55.583Z,74.91
2023-10-26T15:17:00.932Z,74.54
2023-10-26T15:19:21.356Z,74.67
2023-10-26T15:20:27.856Z,74.83
2023-10-26T15:22:11.398Z,74.71
2023-10-26T15:23:54.747Z,74.81
2023-10-26T15:25:38.249Z,74.41
2023-10-26T15:27:21.711Z,74.56
2023-10-26T15:29:05.180Z,74.55
2023-10-26T15:30:48.618Z,74.76
2023-10-26T15:33:01.353Z,75.57
2023-10-26T15:34:07.799Z,75.39
2023-10-26T15:35:14.178Z,75.18
2023-10-26T15:36:20.585Z,75.19
2023-10-26T15:37:26.974Z,75.4
2023-10-26T15:39:39.819Z,75.44
2023-10-26T15:40:46.171Z,75.39
2023-10-26T15:41:52.586Z,75.13
2023-10-26T15:44:13.027Z,75.17
2023-10-26T15:45:56.520Z,75.08
2023-10-26T15:47:02.914Z,75.26
2023-10-26T15:49:33.588Z,75.07
2023-10-26T15:50:29.856Z,75.05
2023-10-26T15:52:13.357Z,75.17
2023-10-26T15:54:33.866Z,75.12
2023-10-26T15:55:40.238Z,74.82
2023-10-26T15:58:00.799Z,74.9
2023-10-26T15:59:07.153Z,74.84
2023-10-26T16:00:50.642Z,74.99
2023-10-26T16:03:03.444Z,74.96
2023-10-26T16:04:09.807Z,74.64
2023-10-26T16:05:16.184Z,74.7
2023-10-26T16:06:22.743Z,74.71
2023-10-26T16:07:28.971Z,74.82
2023-10-26T16:08:35.382Z,74.91
2023-10-26T16:09:41.826Z,75.32
2023-10-26T16:10:48.169Z,74.66
2023-10-26T16:11:54.617Z,74.61
2023-10-26T16:13:01.064Z,74.77
2023-10-26T16:14:07.328Z,74.75
2023-10-26T16:16:20.297Z,74.77
2023-10-26T16:18:03.604Z,74.66
2023-10-26T16:19:47.038Z,74.75
2023-10-26T16:21:30.517Z,74.71
2023-10-26T16:24:57.440Z,74.66
2023-10-26T16:26:40.927Z,74.56
2023-10-26T16:29:01.423Z,74.64
2023-10-26T16:30:07.876Z,74.63
2023-10-26T16:31:51.328Z,74.72
2023-10-26T16:33:34.791Z,74.78
2023-10-26T16:35:18.258Z,74.64
2023-10-26T16:37:01.834Z,74.79
2023-10-26T16:38:45.132Z,74.82
2023-10-26T16:40:28.585Z,74.74
2023-10-26T16:43:55.528Z,74.96
2023-10-26T16:45:39.041Z,74.85
2023-10-26T16:48:36.566Z,75.16
2023-10-26T16:50:19.984Z,75.14
2023-10-26T16:52:40.500Z,75.03
2023-10-26T16:55:01.046Z,75.01
2023-10-26T16:57:21.452Z,75.08
2023-10-26T17:00:19.077Z,75.14
2023-10-26T17:02:02.590Z,75.12
2023-10-26T17:04:23.072Z,75.19
2023-10-26T17:06:06.510Z,75.04
2023-10-26T17:08:27.043Z,75.21
2023-10-26T17:09:33.419Z,75.14
2023-10-26T17:11:16.887Z,75.24
2023-10-26T17:13:00.373Z,75.33
2023-10-26T17:14:43.820Z,75.33
2023-10-26T17:16:27.286Z,75.2
2023-10-26T17:19:54.179Z,75.28
2023-10-26T17:21:37.571Z,75.33
2023-10-26T17:23:21.058Z,75.23
2023-10-26T17:26:48.024Z,75.51
2023-10-26T17:28:31.546Z,75.22
2023-10-26T17:30:14.977Z,75.34
2023-10-26T17:31:58.459Z,75.37
2023-10-26T17:33:41.911Z,75.32
2023-10-26T17:36:02.334Z,75.22
2023-10-26T17:37:08.885Z,75.08
2023-10-26T17:38:52.292Z,75.16
2023-10-26T17:41:12.792Z,75.11
2023-10-26T17:42:19.213Z,75.08
2023-10-26T17:44:02.684Z,75.16
2023-10-26T17:46:23.302Z,75.12
2023-10-26T17:48:06.647Z,75.05
2023-10-26T17:49:50.135Z,75.02
2023-10-26T17:50:56.541Z,75.08
2023-10-26T17:52:40.039Z,75.01
2023-10-26T17:55:03.287Z,74.96
2023-10-26T17:56:43.926Z,74.97
2023-10-26T17:58:27.371Z,74.93
2023-10-26T18:00:10.930Z,74.86
2023-10-26T18:01:54.363Z,74.93
2023-10-26T18:03:37.830Z,74.91
2023-10-26T18:05:58.310Z,74.96
2023-10-26T18:07:41.788Z,74.9
2023-10-26T18:08:48.203Z,74.81
2023-10-26T18:11:08.702Z,74.89
2023-10-26T18:12:15.136Z,74.97
2023-10-26T18:13:58.537Z,75.21
2023-10-26T18:15:04.955Z,75.13
2023-10-26T18:16:12.360Z,75.19
2023-10-26T18:17:54.799Z,75.12
2023-10-26T18:19:01.235Z,74.98
2023-10-26T18:21:13.920Z,74.97
2023-10-26T18:22:20.333Z,75.11
2023-10-26T18:23:26.793Z,75.14
2023-10-26T18:24:33.154Z,75.09
2023-10-26T18:25:39.550Z,75.15
2023-10-26T18:26:45.958Z,75.07
2023-10-26T18:27:52.409Z,75.08
2023-10-26T18:30:05.062Z,75
2023-10-26T18:31:48.627Z,74.99
2023-10-26T18:33:31.984Z,75.11
2023-10-26T18:35:52.517Z,75.04
2023-10-26T18:36:58.935Z,75
2023-10-26T18:39:19.416Z,75.17
2023-10-26T18:40:25.847Z,75.24
2023-10-26T18:42:09.293Z,75.21
2023-10-26T18:43:52.776Z,75.49
2023-10-26T18:45:36.223Z,75.17
2023-10-26T18:47:19.699Z,75.34
2023-10-26T18:51:15.898Z,75.93
2023-10-26T18:53:28.677Z,75.6
2023-10-26T18:54:35.110Z,75.59
2023-10-26T18:55:43.320Z,75.55
2023-10-26T18:56:47.906Z,75.83
2023-10-26T18:57:54.251Z,75.77
2023-10-26T18:59:00.693Z,75.79
2023-10-26T19:00:07.130Z,77.71
2023-10-26T19:01:13.628Z,76.75
2023-10-26T19:02:56.960Z,76.34
2023-10-26T19:04:40.654Z,75.83
2023-10-26T19:06:23.810Z,76.16
2023-10-26T19:08:07.296Z,76.2
2023-10-26T19:10:27.964Z,75.79
2023-10-26T19:11:34.121Z,75.78
2023-10-26T19:13:17.868Z,75.85
2023-10-26T19:15:01.126Z,75.82
2023-10-26T19:16:44.576Z,75.79
2023-10-26T19:19:34.457Z,75.96
2023-10-26T19:20:40.798Z,76.04
2023-10-26T19:21:47.222Z,75.96
2023-10-26T19:23:59.988Z,76.01
2023-10-26T19:26:12.824Z,76.18
2023-10-26T19:27:19.200Z,76.12
2023-10-26T19:28:25.602Z,76.19
2023-10-26T19:29:32.037Z,75.9
2023-10-26T19:30:38.426Z,75.96
2023-10-26T19:32:21.828Z,76.11
2023-10-26T19:34:42.364Z,76.15
2023-10-26T19:35:48.752Z,75.88
2023-10-26T19:37:32.174Z,76.12
2023-10-26T19:39:15.693Z,76.24
2023-10-26T19:40:59.053Z,76.29
2023-10-26T19:42:42.664Z,76.33
2023-10-26T19:45:03.125Z,76.14
2023-10-26T19:46:09.596Z,76.13
2023-10-26T19:47:52.857Z,76.16
2023-10-26T19:50:05.727Z,76.38
2023-10-26T19:52:18.459Z,76.13
2023-10-26T19:53:25.127Z,75.94
2023-10-26T19:54:31.304Z,76.03
2023-10-26T19:57:50.541Z,76.18
2023-10-26T19:58:56.965Z,76.14
2023-10-26T20:00:03.387Z,76.23
2023-10-26T20:01:09.929Z,76.27
2023-10-26T20:02:16.167Z,76.19
2023-10-26T20:03:59.578Z,76.28
2023-10-26T20:05:42.906Z,76.38
2023-10-26T20:07:26.312Z,75.98
2023-10-26T20:09:09.778Z,76.05
2023-10-26T20:12:36.771Z,76.15
2023-10-26T20:16:03.759Z,75.89
2023-10-26T20:18:24.196Z,75.79
2023-10-26T20:19:30.704Z,75.8
2023-10-26T20:22:57.564Z,75.75
2023-10-26T20:24:41.001Z,75.62
2023-10-26T20:27:01.450Z,75.78
2023-10-26T20:29:21.980Z,75.68
2023-10-26T20:32:19.568Z,75.57
2023-10-26T20:34:40.133Z,75.83
2023-10-26T20:36:23.558Z,76.1
2023-10-26T20:39:21.148Z,76.21
2023-10-26T20:41:41.670Z,76.19
2023-10-26T20:43:25.142Z,76.07
2023-10-26T20:45:08.537Z,75.92
2023-10-26T20:48:35.432Z,75.95
2023-10-26T20:50:58.848Z,76.34
2023-10-26T20:52:02.459Z,75.9
2023-10-26T20:53:45.835Z,75.86
2023-10-26T20:57:12.771Z,75.8
2023-10-26T20:58:56.213Z,75.68
2023-10-26T21:01:16.825Z,75.88
2023-10-26T21:03:00.237Z,75.89
2023-10-26T21:05:20.674Z,75.74
2023-10-26T21:07:04.216Z,75.77
2023-10-26T21:09:24.663Z,75.77
2023-10-26T21:12:22.307Z,75.88
2023-10-26T21:14:05.740Z,75.75
2023-10-26T21:16:26.377Z,75.95
2023-10-26T21:18:46.782Z,75.93
2023-10-26T21:21:07.269Z,76
2023-10-26T21:24:04.890Z,76.26
2023-10-26T21:25:48.270Z,76.18
2023-10-26T21:27:31.745Z,75.93
2023-10-26T21:29:15.191Z,76.03
2023-10-26T21:30:58.709Z,76.13
2023-10-26T21:33:19.151Z,75.89
2023-10-26T21:35:02.630Z,76.11
2023-10-26T21:36:09.025Z,76.24
2023-10-26T21:37:52.481Z,75.97
2023-10-26T21:39:35.843Z,76.01
2023-10-26T21:43:02.862Z,76.02
2023-10-26T21:44:46.320Z,75.83
2023-10-26T21:46:29.826Z,76.03
2023-10-26T21:48:13.267Z,76.09